Time,TemperatureF,DewpointF,PressureIn,WindDirection,WindDirectionDegrees,WindSpeedMPH,WindSpeedGustMPH,Humidity,HourlyPrecipIn,Conditions,Clouds,dailyrainin,SoftwareType,DateUTC
2013-03-14 05:30:00,57.4,51.6,30.09,WNW,284,0.0,0.0,81,0.00,,,0.00,Wunderground v.1.15,2013-03-14 12:30:00,
2013-03-14 05:40:00,57.1,51.7,30.10,WNW,283,0.0,0.0,82,0.00,,,0.00,Wunderground v.1.15,2013-03-14 12:40:00,
2013-03-14 05:50:00,56.9,51.8,30.10,WNW,283,0.0,0.0,83,0.00,,,0.00,Wunderground v.1.15,2013-03-14 12:50:00,
2013-03-14 06:10:00,56.7,51.9,30.10,WNW,283,0.0,0.0,84,0.00,,,0.00,Wunderground v.1.15,2013-03-14 13:10:00,
2013-03-14 06:20:00,56.8,52.0,30.09,WNW,283,0.0,0.0,84,0.00,,,0.00,Wunderground v.1.15,2013-03-14 13:20:00,
2013-03-14 06:30:00,56.8,51.7,30.10,WNW,283,0.0,0.0,83,0.00,,,0.00,Wunderground v.1.15,2013-03-14 13:30:00,
2013-03-14 06:40:00,56.7,51.9,30.10,WNW,283,0.0,0.0,84,0.00,,,0.00,Wunderground v.1.15,2013-03-14 13:40:00,
2013-03-14 06:50:00,56.8,52.0,30.10,WNW,284,0.0,0.0,84,0.00,,,0.00,Wunderground v.1.15,2013-03-14 13:50:00,
2013-03-14 07:00:00,56.8,52.0,30.10,WNW,283,0.0,0.0,84,0.00,,,0.00,Wunderground v.1.15,2013-03-14 14:00:00,
2013-03-14 07:10:00,56.7,51.9,30.10,WNW,284,0.0,0.0,84,0.00,,,0.00,Wunderground v.1.15,2013-03-14 14:10:00,
2013-03-14 07:20:00,56.8,51.7,30.10,WNW,284,0.0,0.0,83,0.00,,,0.00,Wunderground v.1.15,2013-03-14 14:20:00,
2013-03-14 07:30:00,56.9,51.8,30.10,WNW,283,0.0,0.0,83,0.00,,,0.00,Wunderground v.1.15,2013-03-14 14:30:00,
2013-03-14 07:39:00,56.8,52.0,30.10,WNW,283,0.0,0.0,84,0.00,,,0.00,Wunderground v.1.15,2013-03-14 14:39:00,
2013-03-14 07:49:00,57.3,52.5,30.11,WNW,284,0.0,0.0,84,0.00,,,0.00,Wunderground v.1.15,2013-03-14 14:49:00,
2013-03-14 07:59:00,58.1,53.3,30.11,WNW,284,0.0,0.0,84,0.00,,,0.00,Wunderground v.1.15,2013-03-14 14:59:00,
2013-03-14 08:09:00,59.1,53.6,30.12,WNW,283,0.0,0.0,82,0.00,,,0.00,Wunderground v.1.15,2013-03-14 15:09:00,
2013-03-14 08:19:00,60.2,53.3,30.12,NNW,347,0.0,0.0,78,0.00,,,0.00,Wunderground v.1.15,2013-03-14 15:19:00,
2013-03-14 08:29:00,60.7,53.8,30.12,NNW,347,0.0,0.0,78,0.00,,,0.00,Wunderground v.1.15,2013-03-14 15:29:00,
2013-03-14 15:00:00,71.2,56.6,30.13,WSW,257,3.0,5.0,60,0.00,,,0.00,Wunderground v.1.15,2013-03-14 22:00:00,
2013-03-14 15:10:00,70.8,56.2,30.12,West,278,4.0,4.0,60,0.00,,,0.00,Wunderground v.1.15,2013-03-14 22:10:00,
2013-03-14 15:20:00,70.5,56.4,30.12,East,79,2.0,2.0,61,0.00,,,0.00,Wunderground v.1.15,2013-03-14 22:20:00,
2013-03-14 15:30:00,71.6,57.4,30.12,ESE,117,0.0,0.0,61,0.00,,,0.00,Wunderground v.1.15,2013-03-14 22:30:00,
2013-03-14 15:40:00,72.4,56.8,30.12,ENE,73,2.0,2.0,58,0.00,,,0.00,Wunderground v.1.15,2013-03-14 22:40:00,
2013-03-14 15:49:00,72.2,56.6,30.12,WSW,256,2.0,2.0,58,0.00,,,0.00,Wunderground v.1.15,2013-03-14 22:49:00,
2013-03-14 16:00:00,72.3,56.2,30.12,East,82,2.0,4.0,57,0.00,,,0.00,Wunderground v.1.15,2013-03-14 23:00:00,
2013-03-14 16:10:00,72.3,56.2,30.12,West,277,2.0,2.0,57,0.00,,,0.00,Wunderground v.1.15,2013-03-14 23:10:00,
2013-03-14 16:19:00,71.0,55.5,30.12,SSW,194,3.0,3.0,58,0.00,,,0.00,Wunderground v.1.15,2013-03-14 23:19:00,
2013-03-14 16:29:00,69.4,54.4,30.12,West,281,5.0,5.0,59,0.00,,,0.00,Wunderground v.1.15,2013-03-14 23:29:00,
2013-03-14 16:39:00,68.9,54.0,30.11,WNW,289,3.0,3.0,59,0.00,,,0.00,Wunderground v.1.15,2013-03-14 23:39:00,
2013-03-14 16:50:00,68.3,53.4,30.11,WSW,249,4.0,4.0,59,0.00,,,0.00,Wunderground v.1.15,2013-03-14 23:50:00,
2013-03-14 17:00:00,67.6,53.2,30.11,West,273,5.0,5.0,60,0.00,,,0.00,Wunderground v.1.15,2013-03-15 00:00:00,
2013-03-14 17:10:00,67.5,51.7,30.11,West,259,5.0,5.0,57,0.00,,,0.00,Wunderground v.1.15,2013-03-15 00:10:00,
2013-03-14 17:20:00,67.6,51.8,30.11,SSW,197,3.0,3.0,57,0.00,,,0.00,Wunderground v.1.15,2013-03-15 00:20:00,
2013-03-14 17:30:00,67.4,51.2,30.11,SW,228,3.0,4.0,56,0.00,,,0.00,Wunderground v.1.15,2013-03-15 00:30:00,
2013-03-14 17:40:00,66.9,50.7,30.10,West,272,4.0,4.0,56,0.00,,,0.00,Wunderground v.1.15,2013-03-15 00:40:00,
2013-03-14 17:50:00,67.1,51.8,30.10,SW,236,1.0,1.0,58,0.00,,,0.00,Wunderground v.1.15,2013-03-15 00:50:00,
2013-03-14 18:00:00,67.4,52.6,30.09,WNW,287,1.0,1.0,59,0.00,,,0.00,Wunderground v.1.15,2013-03-15 01:00:00,
2013-03-14 18:10:00,67.4,53.0,30.09,West,278,0.0,0.0,60,0.00,,,0.00,Wunderground v.1.15,2013-03-15 01:10:00,
2013-03-14 18:20:00,67.5,53.6,30.09,WSW,249,1.0,1.0,61,0.00,,,0.00,Wunderground v.1.15,2013-03-15 01:20:00,
2013-03-14 18:30:00,67.8,53.9,30.10,WNW,300,1.0,2.0,61,0.00,,,0.00,Wunderground v.1.15,2013-03-15 01:30:00,
2013-03-14 18:40:00,68.3,54.3,30.10,NNW,341,2.0,2.0,61,0.00,,,0.00,Wunderground v.1.15,2013-03-15 01:40:00,
2013-03-14 18:50:00,68.3,53.9,30.10,SE,143,2.0,2.0,60,0.00,,,0.00,Wunderground v.1.15,2013-03-15 01:50:00,
2013-03-14 19:00:00,67.0,52.7,30.10,ESE,108,0.0,0.0,60,0.00,,,0.00,Wunderground v.1.15,2013-03-15 02:00:00,